createdAt,value
2022-10-18T20:02:43.427Z,3.17
2022-10-18T20:05:16.661Z,3.47
2022-10-18T20:07:49.259Z,3.17
2022-10-18T20:10:22.233Z,3.15
2022-10-18T20:12:54.920Z,3.30
2022-10-18T20:15:28.062Z,3.60
2022-10-18T20:18:00.661Z,4.00
2022-10-18T20:20:37.177Z,5.03
2022-10-18T20:23:09.959Z,5.60
2022-10-18T20:25:42.848Z,4.90
2022-10-18T20:28:15.769Z,5.03
2022-10-18T20:30:48.654Z,4.03
2022-10-18T20:33:23.031Z,4.10
2022-10-18T20:35:56.646Z,4.03
2022-10-18T20:38:30.512Z,3.95
2022-10-18T20:41:04.257Z,3.43
2022-10-18T20:43:36.998Z,3.97
2022-10-18T20:46:10.298Z,4.10
2022-10-18T20:48:42.865Z,4.32
2022-10-18T20:51:17.310Z,3.95
2022-10-18T20:53:49.937Z,4.40
2022-10-18T20:56:24.290Z,4.35
2022-10-18T20:58:57.638Z,4.13
2022-10-18T21:01:31.283Z,4.53
2022-10-18T21:04:05.764Z,4.93
2022-10-18T21:06:41.227Z,5.18
2022-10-18T21:09:18.445Z,4.83
2022-10-18T21:11:51.828Z,5.53
2022-10-18T21:14:24.870Z,5.03
2022-10-18T21:16:57.688Z,4.80
2022-10-18T21:19:30.226Z,4.90
2022-10-18T21:22:03.088Z,5.05
2022-10-18T21:24:35.589Z,4.47
2022-10-18T21:27:08.359Z,5.65
2022-10-18T21:29:40.983Z,5.78
2022-10-18T21:32:13.740Z,5.35
2022-10-18T21:34:46.318Z,5.47
2022-10-18T21:37:19.218Z,4.68
2022-10-18T21:39:51.816Z,4.45
2022-10-18T21:42:24.700Z,4.97
2022-10-18T21:44:57.256Z,4.80
2022-10-18T21:47:30.044Z,5.10
2022-10-18T21:50:02.564Z,5.57
2022-10-18T21:52:35.982Z,4.97
2022-10-18T21:55:08.741Z,4.63
2022-10-18T21:57:41.780Z,4.95
2022-10-18T22:00:15.965Z,4.88
2022-10-18T22:02:48.763Z,4.82
2022-10-18T22:05:21.303Z,5.40
2022-10-18T22:07:54.214Z,4.88
2022-10-18T22:10:27.028Z,5.13
2022-10-18T22:12:59.996Z,4.63
2022-10-18T22:15:32.450Z,5.10
2022-10-18T22:18:05.373Z,4.93
2022-10-18T22:20:37.774Z,5.47
2022-10-18T22:23:13.252Z,5.43
2022-10-18T22:25:45.847Z,5.88
2022-10-18T22:28:18.625Z,5.68
2022-10-18T22:30:51.201Z,5.18
2022-10-18T22:33:23.958Z,4.88
2022-10-18T22:35:56.489Z,5.47
2022-10-18T22:38:32.661Z,4.97
2022-10-18T22:41:06.074Z,5.28
2022-10-18T22:43:39.231Z,4.72
2022-10-18T22:46:12.671Z,4.28
2022-10-18T22:48:45.842Z,4.68
2022-10-18T22:51:18.487Z,4.90
2022-10-18T22:53:51.287Z,4.40
2022-10-18T22:56:24.147Z,4.38
2022-10-18T22:58:56.931Z,4.80
2022-10-18T23:01:29.353Z,4.35
2022-10-18T23:04:02.419Z,4.68
2022-10-18T23:06:36.041Z,4.53
2022-10-18T23:09:10.801Z,4.88
2022-10-18T23:11:43.441Z,4.63
2022-10-18T23:14:16.195Z,5.15
2022-10-18T23:16:48.574Z,5.15
2022-10-18T23:19:21.345Z,4.28
2022-10-18T23:21:53.801Z,4.53
2022-10-18T23:24:27.036Z,4.63
2022-10-18T23:26:59.441Z,4.82
2022-10-18T23:29:32.272Z,4.13
2022-10-18T23:32:05.247Z,4.60
2022-10-18T23:34:38.112Z,3.47
2022-10-18T23:37:10.605Z,3.40
2022-10-18T23:39:43.395Z,3.42
2022-10-18T23:42:15.976Z,3.28
2022-10-18T23:44:48.946Z,3.72
2022-10-18T23:47:21.465Z,3.28
2022-10-18T23:49:55.921Z,3.05
2022-10-18T23:52:28.386Z,3.35
2022-10-18T23:55:01.275Z,3.22
2022-10-18T23:57:33.904Z,3.13
